createdAt,value
2022-11-29T00:01:16.189Z,100.00
2022-11-29T00:03:43.355Z,100.00
2022-11-29T00:06:19.105Z,100.00
2022-11-29T00:08:46.276Z,100.00
2022-11-29T00:11:38.386Z,100.00
2022-11-29T00:14:06.294Z,100.00
2022-11-29T00:16:33.054Z,100.00
2022-11-29T00:19:00.107Z,100.00
2022-11-29T00:21:26.777Z,100.00
2022-11-29T00:23:53.678Z,100.00
2022-11-29T00:26:20.430Z,100.00
2022-11-29T00:28:47.047Z,100.00
2022-11-29T00:31:21.454Z,100.00
2022-11-29T00:33:48.693Z,100.00
2022-11-29T00:36:15.849Z,100.00
2022-11-29T00:38:42.525Z,100.00
2022-11-29T00:41:09.704Z,100.00
2022-11-29T00:43:36.546Z,100.00
2022-11-29T00:46:04.233Z,100.00
2022-11-29T00:48:31.422Z,100.00
2022-11-29T00:50:58.090Z,100.00
2022-11-29T00:53:24.919Z,100.00
2022-11-29T00:55:52.659Z,100.00
2022-11-29T00:58:20.265Z,100.00
2022-11-29T01:00:47.685Z,100.00
2022-11-29T01:03:15.120Z,100.00
2022-11-29T01:05:42.905Z,100.00
2022-11-29T01:08:10.539Z,100.00
2022-11-29T01:10:37.184Z,100.00
2022-11-29T01:13:04.061Z,100.00
2022-11-29T01:15:30.793Z,100.00
2022-11-29T01:17:57.492Z,100.00
2022-11-29T01:20:24.085Z,100.00
2022-11-29T01:22:51.177Z,100.00
2022-11-29T01:25:19.467Z,100.00
2022-11-29T01:27:46.383Z,100.00
2022-11-29T01:30:13.185Z,100.00
2022-11-29T01:32:39.890Z,100.00
2022-11-29T01:35:06.948Z,100.00
2022-11-29T01:37:33.642Z,100.00
2022-11-29T01:40:00.447Z,100.00
2022-11-29T01:42:27.029Z,100.00
2022-11-29T01:45:02.397Z,100.00
2022-11-29T01:47:28.930Z,100.00
2022-11-29T01:49:55.470Z,100.00
2022-11-29T01:52:33.506Z,100.00
2022-11-29T01:55:02.146Z,100.00
2022-11-29T01:57:29.692Z,100.00
2022-11-29T02:00:00.917Z,100.00
2022-11-29T02:02:35.639Z,100.00
2022-11-29T02:05:03.033Z,100.00
2022-11-29T02:07:29.756Z,100.00
2022-11-29T02:09:56.350Z,100.00
2022-11-29T02:12:43.220Z,100.00
2022-11-29T02:15:43.383Z,100.00
2022-11-29T02:18:14.765Z,100.00
2022-11-29T02:21:14.474Z,100.00
2022-11-29T02:24:02.471Z,100.00
2022-11-29T02:26:55.572Z,100.00
2022-11-29T02:29:59.803Z,100.00
2022-11-29T02:32:48.102Z,100.00
2022-11-29T02:35:39.516Z,100.00
2022-11-29T02:38:28.075Z,100.00
2022-11-29T02:41:13.639Z,100.00
2022-11-29T02:44:01.847Z,100.00
2022-11-29T02:46:55.886Z,100.00
2022-11-29T02:49:53.268Z,100.00
2022-11-29T02:52:27.773Z,100.00
2022-11-29T02:55:33.001Z,100.00
2022-11-29T02:58:09.710Z,100.00
2022-11-29T03:00:42.645Z,100.00
2022-11-29T03:03:11.652Z,100.00
2022-11-29T03:06:08.579Z,100.00
2022-11-29T03:08:55.528Z,100.00
2022-11-29T03:11:45.639Z,100.00
2022-11-29T03:14:21.600Z,100.00
2022-11-29T03:17:12.321Z,100.00
2022-11-29T03:19:59.807Z,100.00
2022-11-29T03:22:26.365Z,100.00
2022-11-29T03:25:13.630Z,100.00
2022-11-29T03:28:03.630Z,100.00
2022-11-29T03:30:33.008Z,100.00
2022-11-29T03:33:06.119Z,100.00
2022-11-29T03:35:38.738Z,100.00
2022-11-29T03:38:20.596Z,100.00
2022-11-29T03:40:56.416Z,100.00
2022-11-29T03:43:35.341Z,100.00
2022-11-29T03:46:06.624Z,100.00
2022-11-29T03:48:35.712Z,100.00
2022-11-29T03:51:14.534Z,100.00
2022-11-29T03:54:20.230Z,100.00
2022-11-29T03:56:47.174Z,100.00
2022-11-29T03:59:44.762Z,100.00
2022-11-29T04:02:48.604Z,100.00
2022-11-29T04:05:33.562Z,100.00
2022-11-29T04:08:28.125Z,100.00
2022-11-29T04:11:16.860Z,100.00
2022-11-29T04:14:04.624Z,100.00
2022-11-29T04:16:53.116Z,100.00
2022-11-29T04:19:44.632Z,100.00
2022-11-29T04:22:34.563Z,100.00
2022-11-29T04:25:04.115Z,100.00
2022-11-29T04:27:37.657Z,100.00
2022-11-29T04:30:10.035Z,100.00
2022-11-29T04:32:36.629Z,100.00
2022-11-29T04:35:09.307Z,100.00
2022-11-29T04:38:15.632Z,100.00
2022-11-29T04:41:24.003Z,100.00
2022-11-29T04:44:12.233Z,100.00
2022-11-29T04:47:09.168Z,100.00
2022-11-29T04:50:03.824Z,100.00
2022-11-29T04:52:52.112Z,100.00
2022-11-29T04:55:26.183Z,100.00
2022-11-29T04:58:18.455Z,100.00
2022-11-29T05:00:56.524Z,100.00
2022-11-29T05:03:34.353Z,100.00
2022-11-29T05:06:42.786Z,100.00
2022-11-29T05:09:22.252Z,100.00
2022-11-29T05:11:51.826Z,100.00
2022-11-29T05:14:27.594Z,100.00
2022-11-29T05:17:04.631Z,100.00
2022-11-29T05:20:03.731Z,100.00
2022-11-29T05:22:58.586Z,100.00
2022-11-29T05:25:40.065Z,100.00
2022-11-29T05:28:24.967Z,100.00
2022-11-29T05:31:15.809Z,100.00
2022-11-29T05:34:03.860Z,100.00
2022-11-29T05:36:33.602Z,100.00
2022-11-29T05:39:20.242Z,100.00
2022-11-29T05:42:20.802Z,100.00
2022-11-29T05:44:52.691Z,100.00
2022-11-29T05:47:31.602Z,100.00
2022-11-29T05:50:07.223Z,100.00
2022-11-29T05:52:44.180Z,100.00
2022-11-29T05:55:13.919Z,100.00
2022-11-29T05:57:57.081Z,100.00
2022-11-29T06:00:25.087Z,100.00
2022-11-29T06:03:13.651Z,100.00
2022-11-29T06:05:48.778Z,100.00
2022-11-29T06:08:24.707Z,100.00
2022-11-29T06:11:06.435Z,100.00
2022-11-29T06:13:58.035Z,100.00
2022-11-29T06:16:57.416Z,100.00
2022-11-29T06:19:50.825Z,100.00
2022-11-29T06:22:27.444Z,100.00
2022-11-29T06:25:23.706Z,100.00
2022-11-29T06:27:59.636Z,100.00
2022-11-29T06:30:41.532Z,100.00
2022-11-29T06:33:40.154Z,100.00
2022-11-29T06:36:30.196Z,100.00
2022-11-29T06:38:57.211Z,100.00
2022-11-29T06:41:27.813Z,100.00
2022-11-29T06:43:54.768Z,100.00
2022-11-29T06:46:42.648Z,100.00
2022-11-29T06:49:13.448Z,100.00
2022-11-29T06:51:47.254Z,100.00
2022-11-29T06:54:32.592Z,100.00
2022-11-29T06:57:08.735Z,100.00
2022-11-29T06:59:58.474Z,100.00
2022-11-29T07:02:48.326Z,100.00
2022-11-29T07:05:15.024Z,100.00
2022-11-29T07:07:42.373Z,100.00
2022-11-29T07:10:19.456Z,100.00
2022-11-29T07:12:47.988Z,100.00
2022-11-29T07:15:20.664Z,100.00
2022-11-29T07:18:25.963Z,100.00
2022-11-29T07:21:17.754Z,100.00
2022-11-29T07:23:47.449Z,100.00
2022-11-29T07:26:47.056Z,100.00
2022-11-29T07:29:22.792Z,100.00
2022-11-29T07:32:04.704Z,100.00
2022-11-29T07:34:40.037Z,100.00
2022-11-29T07:37:28.151Z,100.00
2022-11-29T07:40:00.666Z,100.00
2022-11-29T07:42:35.694Z,100.00
2022-11-29T07:45:22.568Z,100.00
2022-11-29T07:47:50.144Z,100.00
2022-11-29T07:50:16.974Z,100.00
2022-11-29T07:52:44.116Z,100.00
2022-11-29T07:55:18.928Z,100.00
2022-11-29T07:57:46.437Z,100.00
2022-11-29T08:00:13.941Z,100.00
2022-11-29T08:02:41.043Z,100.00
2022-11-29T08:05:08.919Z,100.00
2022-11-29T08:07:37.178Z,100.00
2022-11-29T08:10:06.907Z,100.00
2022-11-29T08:12:33.602Z,100.00
2022-11-29T08:15:00.251Z,100.00
2022-11-29T08:17:26.927Z,100.00
2022-11-29T08:19:53.583Z,100.00
2022-11-29T08:22:20.206Z,100.00
2022-11-29T08:24:47.302Z,100.00
2022-11-29T08:27:14.217Z,100.00
2022-11-29T08:29:40.869Z,100.00
2022-11-29T08:32:08.969Z,100.00
2022-11-29T08:34:35.647Z,99.68
2022-11-29T08:37:02.258Z,99.86
2022-11-29T08:39:28.850Z,99.68
2022-11-29T08:41:55.490Z,99.55
2022-11-29T08:44:22.192Z,99.75
2022-11-29T08:47:07.388Z,99.83
2022-11-29T08:49:34.118Z,99.22
2022-11-29T08:52:40.440Z,99.84
2022-11-29T08:55:07.434Z,100.00
2022-11-29T08:57:41.473Z,99.43
2022-11-29T09:00:09.102Z,100.00
2022-11-29T09:02:37.065Z,99.87
2022-11-29T09:05:05.151Z,100.00
2022-11-29T09:07:32.213Z,100.00
2022-11-29T09:09:59.015Z,100.00
2022-11-29T09:12:25.678Z,100.00
2022-11-29T09:14:52.383Z,100.00
2022-11-29T09:17:18.995Z,100.00
2022-11-29T09:19:45.726Z,100.00
2022-11-29T09:22:12.432Z,100.00
2022-11-29T09:24:40.425Z,100.00
2022-11-29T09:27:07.483Z,100.00
2022-11-29T09:29:34.050Z,100.00
2022-11-29T09:32:00.732Z,100.00
2022-11-29T09:34:27.424Z,100.00
2022-11-29T09:36:54.078Z,100.00
2022-11-29T09:39:20.706Z,100.00
2022-11-29T09:41:56.412Z,100.00
2022-11-29T09:44:41.171Z,100.00
2022-11-29T09:47:45.555Z,100.00
2022-11-29T09:50:32.587Z,100.00
2022-11-29T09:53:18.139Z,100.00
2022-11-29T09:56:02.945Z,100.00
2022-11-29T09:58:40.537Z,100.00
2022-11-29T10:01:11.350Z,100.00
2022-11-29T10:03:44.683Z,100.00
2022-11-29T10:06:23.548Z,100.00
2022-11-29T10:08:56.247Z,100.00
2022-11-29T10:11:36.808Z,100.00
2022-11-29T10:14:11.514Z,100.00
2022-11-29T10:16:43.498Z,100.00
2022-11-29T10:19:10.141Z,100.00
2022-11-29T10:21:39.018Z,100.00
2022-11-29T10:24:13.434Z,100.00
2022-11-29T10:26:40.939Z,100.00
2022-11-29T10:29:12.663Z,99.94
2022-11-29T10:31:43.305Z,99.84
2022-11-29T10:34:21.904Z,99.83
2022-11-29T10:36:59.804Z,98.85
2022-11-29T10:39:43.832Z,99.06
2022-11-29T10:42:35.031Z,99.40
2022-11-29T10:45:02.358Z,100.00
2022-11-29T10:47:28.996Z,100.00
2022-11-29T10:49:56.845Z,100.00
2022-11-29T10:52:25.486Z,100.00
2022-11-29T10:54:56.366Z,100.00
2022-11-29T10:57:23.966Z,100.00
2022-11-29T11:00:06.962Z,100.00
2022-11-29T11:02:35.824Z,100.00
2022-11-29T11:05:03.547Z,99.95
2022-11-29T11:07:35.639Z,99.80
2022-11-29T11:10:05.911Z,99.59
2022-11-29T11:12:34.426Z,99.96
2022-11-29T11:15:28.925Z,99.12
2022-11-29T11:18:06.465Z,99.09
2022-11-29T11:20:38.446Z,98.66
2022-11-29T11:23:24.971Z,98.77
2022-11-29T11:26:00.877Z,98.77
2022-11-29T11:28:30.471Z,98.49
2022-11-29T11:31:04.996Z,97.57
2022-11-29T11:33:37.002Z,97.69
2022-11-29T11:36:08.697Z,97.99
2022-11-29T11:39:00.012Z,97.18
2022-11-29T11:41:54.218Z,98.54
2022-11-29T11:44:50.383Z,98.01
2022-11-29T11:47:18.554Z,98.31
2022-11-29T11:49:53.503Z,99.13
2022-11-29T11:52:25.284Z,99.16
2022-11-29T11:54:55.295Z,99.17
2022-11-29T11:57:22.913Z,98.82
2022-11-29T11:59:51.011Z,98.97
2022-11-29T12:02:29.035Z,98.49
2022-11-29T12:04:59.403Z,98.53
2022-11-29T12:08:09.377Z,98.63
2022-11-29T12:10:38.593Z,98.21
2022-11-29T12:13:05.471Z,97.30
2022-11-29T12:15:51.156Z,97.12
2022-11-29T12:18:38.037Z,96.45
2022-11-29T12:21:22.170Z,97.20
2022-11-29T12:24:02.387Z,97.85
2022-11-29T12:29:19.803Z,98.74
2022-11-29T12:31:56.861Z,98.41
2022-11-29T12:35:00.034Z,98.49
2022-11-29T12:37:35.962Z,98.43
2022-11-29T12:40:05.645Z,98.33
2022-11-29T12:42:57.170Z,97.76
2022-11-29T12:45:49.443Z,98.04
2022-11-29T12:48:36.227Z,98.75
2022-11-29T12:51:05.981Z,98.03
2022-11-29T12:53:59.725Z,98.27
2022-11-29T12:56:37.590Z,98.23
2022-11-29T12:59:25.520Z,98.49
2022-11-29T13:02:16.918Z,99.12
2022-11-29T13:04:59.595Z,99.19
2022-11-29T13:11:29.489Z,98.28
2022-11-29T13:14:34.710Z,99.43
2022-11-29T13:17:08.435Z,99.38
2022-11-29T13:19:50.363Z,100.00
2022-11-29T13:22:38.188Z,98.96
2022-11-29T13:25:18.899Z,99.22
2022-11-29T13:28:08.224Z,99.17
2022-11-29T13:30:35.699Z,98.51
2022-11-29T13:33:26.196Z,97.93
2022-11-29T13:36:26.830Z,98.14
2022-11-29T13:39:44.452Z,99.20
2022-11-29T13:42:21.982Z,98.59
2022-11-29T13:44:54.350Z,98.77
2022-11-29T13:47:21.516Z,99.57
2022-11-29T13:50:38.953Z,99.69
2022-11-29T13:53:42.842Z,100.00
2022-11-29T13:56:29.765Z,100.00
2022-11-29T13:58:58.807Z,100.00
2022-11-29T14:01:26.772Z,100.00
2022-11-29T14:04:07.129Z,100.00
2022-11-29T14:06:40.463Z,100.00
2022-11-29T14:09:26.474Z,100.00
2022-11-29T14:12:19.832Z,99.94
2022-11-29T14:14:53.943Z,99.78
2022-11-29T14:17:41.666Z,99.84
2022-11-29T14:20:25.001Z,99.96
2022-11-29T14:23:14.304Z,99.44
2022-11-29T14:25:56.312Z,99.12
2022-11-29T14:28:22.856Z,99.00
2022-11-29T14:31:03.100Z,98.87
2022-11-29T14:33:55.457Z,99.52
2022-11-29T14:36:50.410Z,99.52
2022-11-29T14:39:41.176Z,99.68
2022-11-29T14:42:19.687Z,100.00
2022-11-29T14:44:50.911Z,100.00
2022-11-29T14:47:26.840Z,100.00
2022-11-29T14:49:55.820Z,100.00
2022-11-29T14:52:51.887Z,100.00
2022-11-29T14:55:24.968Z,99.80
2022-11-29T14:58:07.843Z,99.40
2022-11-29T15:00:38.443Z,99.00
2022-11-29T15:03:14.415Z,98.41
2022-11-29T15:05:47.135Z,98.54
2022-11-29T15:08:32.239Z,97.89
2022-11-29T15:11:05.314Z,97.80
2022-11-29T15:13:38.044Z,98.13
2022-11-29T15:16:28.458Z,97.85
2022-11-29T15:19:17.949Z,97.30
2022-11-29T15:21:57.857Z,96.34
2022-11-29T15:25:04.567Z,96.75
2022-11-29T15:27:31.127Z,97.43
2022-11-29T15:29:59.835Z,96.85
2022-11-29T15:32:31.353Z,96.65
2022-11-29T15:34:58.751Z,96.94
2022-11-29T15:37:35.534Z,97.23
2022-11-29T15:40:18.026Z,97.35
2022-11-29T15:42:54.699Z,97.47
2022-11-29T15:45:48.764Z,97.97
2022-11-29T15:48:21.541Z,98.61
2022-11-29T15:50:57.247Z,98.90
2022-11-29T15:53:33.539Z,99.25
2022-11-29T15:56:20.615Z,99.15
2022-11-29T15:58:47.776Z,99.38
2022-11-29T16:01:22.637Z,99.66
2022-11-29T16:03:53.183Z,100.00
2022-11-29T16:06:40.236Z,100.00
2022-11-29T16:09:09.887Z,99.80
2022-11-29T16:11:38.097Z,99.91
2022-11-29T16:14:10.850Z,100.00
2022-11-29T16:16:39.313Z,100.00
2022-11-29T16:19:31.040Z,100.00
2022-11-29T16:22:15.982Z,100.00
2022-11-29T16:25:04.547Z,100.00
2022-11-29T16:27:35.420Z,100.00
2022-11-29T16:30:02.739Z,100.00
2022-11-29T16:32:34.686Z,100.00
2022-11-29T16:35:21.973Z,99.23
2022-11-29T16:37:48.702Z,99.30
2022-11-29T16:40:26.911Z,100.00
2022-11-29T16:43:19.986Z,99.94
2022-11-29T16:45:47.016Z,100.00
2022-11-29T16:48:22.819Z,100.00
2022-11-29T16:51:13.916Z,99.89
2022-11-29T16:53:50.622Z,100.00
2022-11-29T16:56:19.194Z,100.00
2022-11-29T16:59:24.709Z,99.44
2022-11-29T17:01:41.478Z,99.97
2022-11-29T17:04:08.391Z,100.00
2022-11-29T17:06:35.264Z,100.00
2022-11-29T17:09:01.964Z,100.00
2022-11-29T17:11:28.668Z,100.00
2022-11-29T17:13:55.214Z,100.00
2022-11-29T17:16:23.615Z,100.00
2022-11-29T17:18:52.611Z,100.00
2022-11-29T17:21:24.888Z,100.00
2022-11-29T17:23:52.741Z,100.00
2022-11-29T17:26:22.803Z,100.00
2022-11-29T17:28:50.455Z,100.00
2022-11-29T17:31:24.319Z,100.00
2022-11-29T17:33:51.465Z,100.00
2022-11-29T17:36:19.782Z,100.00
2022-11-29T17:38:46.953Z,100.00
2022-11-29T17:41:16.205Z,100.00
2022-11-29T17:43:42.989Z,100.00
2022-11-29T17:46:11.304Z,100.00
2022-11-29T17:48:40.764Z,100.00
2022-11-29T17:51:22.803Z,100.00
2022-11-29T17:53:54.735Z,100.00
2022-11-29T17:56:23.672Z,100.00
2022-11-29T17:58:54.888Z,100.00
2022-11-29T18:01:23.806Z,100.00
2022-11-29T18:03:55.344Z,100.00
2022-11-29T18:06:26.541Z,100.00
2022-11-29T18:08:59.074Z,100.00
2022-11-29T18:11:30.146Z,100.00
2022-11-29T18:13:57.505Z,100.00
2022-11-29T18:16:30.054Z,100.00
2022-11-29T18:19:07.861Z,100.00
2022-11-29T18:21:38.037Z,100.00
2022-11-29T18:24:06.203Z,100.00
2022-11-29T18:26:34.255Z,100.00
2022-11-29T18:29:01.207Z,100.00
2022-11-29T18:31:30.007Z,100.00
2022-11-29T18:34:01.939Z,100.00
2022-11-29T18:36:36.833Z,100.00
2022-11-29T18:39:14.774Z,100.00
2022-11-29T18:41:43.657Z,100.00
2022-11-29T18:44:12.761Z,100.00
2022-11-29T18:46:41.284Z,100.00
2022-11-29T18:49:10.662Z,100.00
2022-11-29T18:51:38.437Z,100.00
2022-11-29T18:54:06.410Z,100.00
2022-11-29T18:56:34.522Z,100.00
2022-11-29T18:59:07.094Z,100.00
2022-11-29T19:01:37.937Z,99.97
2022-11-29T19:04:04.811Z,99.47
2022-11-29T19:06:39.335Z,99.98
2022-11-29T19:09:32.833Z,100.00
2022-11-29T19:11:59.549Z,100.00
2022-11-29T19:14:26.750Z,100.00
2022-11-29T19:16:53.735Z,100.00
2022-11-29T19:19:21.188Z,100.00
2022-11-29T19:21:48.093Z,100.00
2022-11-29T19:24:17.646Z,100.00
2022-11-29T19:26:46.375Z,100.00
2022-11-29T19:29:14.121Z,100.00
2022-11-29T19:31:41.785Z,100.00
2022-11-29T19:34:08.894Z,100.00
2022-11-29T19:36:43.646Z,100.00
2022-11-29T19:39:13.246Z,100.00
2022-11-29T19:41:42.189Z,100.00
2022-11-29T19:44:09.275Z,99.73
2022-11-29T19:46:41.056Z,99.83
2022-11-29T19:49:08.754Z,99.84
2022-11-29T19:51:36.343Z,100.00
2022-11-29T19:54:05.509Z,100.00
2022-11-29T19:56:32.915Z,100.00
2022-11-29T19:58:59.865Z,100.00
2022-11-29T20:01:37.751Z,100.00
2022-11-29T20:04:06.165Z,99.68
2022-11-29T20:06:32.729Z,100.00
2022-11-29T20:08:59.399Z,100.00
2022-11-29T20:11:26.670Z,99.91
2022-11-29T20:14:01.245Z,99.39
2022-11-29T20:16:29.639Z,98.50
2022-11-29T20:18:57.298Z,98.58
2022-11-29T20:21:29.128Z,99.72
2022-11-29T20:23:57.948Z,99.62
2022-11-29T20:26:25.641Z,100.00
2022-11-29T20:28:52.440Z,100.00
2022-11-29T20:31:22.702Z,100.00
2022-11-29T20:33:51.091Z,100.00
2022-11-29T20:36:33.089Z,100.00
2022-11-29T20:39:34.276Z,100.00
2022-11-29T20:42:28.555Z,100.00
2022-11-29T20:44:57.218Z,100.00
2022-11-29T20:47:31.709Z,100.00
2022-11-29T20:49:58.396Z,100.00
2022-11-29T20:52:46.904Z,100.00
2022-11-29T20:55:13.482Z,100.00
2022-11-29T20:57:40.342Z,100.00
2022-11-29T21:00:08.256Z,100.00
2022-11-29T21:02:34.982Z,100.00
2022-11-29T21:05:01.593Z,100.00
2022-11-29T21:07:29.289Z,100.00
2022-11-29T21:10:00.907Z,100.00
2022-11-29T21:12:29.362Z,100.00
2022-11-29T21:14:56.313Z,100.00
2022-11-29T21:17:23.291Z,100.00
2022-11-29T21:19:50.230Z,100.00
2022-11-29T21:22:35.661Z,100.00
2022-11-29T21:25:20.668Z,100.00
2022-11-29T21:27:50.399Z,100.00
2022-11-29T21:30:22.619Z,100.00
2022-11-29T21:32:49.937Z,100.00
2022-11-29T21:35:17.180Z,100.00
2022-11-29T21:37:44.253Z,100.00
2022-11-29T21:40:12.430Z,100.00
2022-11-29T21:42:39.567Z,99.83
2022-11-29T21:45:14.587Z,99.44
2022-11-29T21:47:43.162Z,99.68
2022-11-29T21:50:10.805Z,99.89
2022-11-29T21:52:37.475Z,99.97
2022-11-29T21:55:04.910Z,100.00
2022-11-29T21:57:31.548Z,100.00
2022-11-29T21:59:58.180Z,100.00
2022-11-29T22:02:24.872Z,100.00
2022-11-29T22:04:51.617Z,100.00
2022-11-29T22:07:18.308Z,100.00
2022-11-29T22:09:46.222Z,100.00
2022-11-29T22:12:32.908Z,100.00
2022-11-29T22:15:00.028Z,100.00
2022-11-29T22:17:29.461Z,100.00
2022-11-29T22:19:56.143Z,100.00
2022-11-29T22:22:24.281Z,100.00
2022-11-29T22:24:54.669Z,100.00
2022-11-29T22:27:21.310Z,100.00
2022-11-29T22:29:47.921Z,100.00
2022-11-29T22:32:14.627Z,100.00
2022-11-29T22:34:41.329Z,100.00
2022-11-29T22:37:08.091Z,100.00
2022-11-29T22:39:34.739Z,100.00
2022-11-29T22:42:03.651Z,100.00
2022-11-29T22:44:31.294Z,100.00
2022-11-29T22:46:58.350Z,100.00
2022-11-29T22:49:25.284Z,100.00
2022-11-29T22:51:52.464Z,100.00
2022-11-29T22:54:20.345Z,100.00
2022-11-29T22:56:47.499Z,100.00
2022-11-29T22:59:17.899Z,100.00
2022-11-29T23:01:44.930Z,100.00
2022-11-29T23:04:12.378Z,100.00
2022-11-29T23:06:42.181Z,100.00
2022-11-29T23:09:27.199Z,100.00
2022-11-29T23:12:08.041Z,100.00
2022-11-29T23:14:34.965Z,100.00
2022-11-29T23:17:02.069Z,100.00
2022-11-29T23:19:29.849Z,100.00
2022-11-29T23:21:56.700Z,100.00
2022-11-29T23:24:23.721Z,100.00
2022-11-29T23:26:50.631Z,100.00
2022-11-29T23:29:19.129Z,100.00
2022-11-29T23:31:46.918Z,100.00
2022-11-29T23:34:13.901Z,100.00
2022-11-29T23:36:40.984Z,100.00
2022-11-29T23:39:08.025Z,100.00
2022-11-29T23:41:37.759Z,100.00
2022-11-29T23:44:08.682Z,100.00
2022-11-29T23:46:35.467Z,100.00
2022-11-29T23:49:02.320Z,100.00
2022-11-29T23:51:29.221Z,100.00
2022-11-29T23:53:55.991Z,100.00
2022-11-29T23:56:22.826Z,100.00
2022-11-29T23:58:49.528Z,100.00
